Time;durP1;ratioP1;P1;durP2;ratioP2;P2;SDS_P1;SDS_P2;PMS_P1;PMS_P2;Temp;Humidity;BMP_temperature;BMP_pressure;BME280_temperature;BME280_humidity;BME280_pressure;Samples;Min_cycle;Max_cycle;Signal;HPM_P1;HPM_P2
2022/08/06 00:01:07;;;;;;;12.55;10.02;;;;;;;23.03;51.84;99074.97;5031323;28;20033;-71
2022/08/06 00:03:32;;;;;;;9.98;8.77;;;;;;;23.32;50.96;99063.94;5031380;28;20037;-71
2022/08/06 00:05:58;;;;;;;17.40;9.05;;;;;;;23.37;50.95;99077.69;5031214;28;20041;-71
2022/08/06 00:08:23;;;;;;;10.40;8.02;;;;;;;23.37;51.05;99062.66;5030244;28;20041;-72
2022/08/06 00:10:49;;;;;;;15.00;10.00;;;;;;;23.54;50.49;99066.44;5033572;28;20040;-71
2022/08/06 00:13:14;;;;;;;24.42;9.82;;;;;;;23.54;50.61;99063.59;5033710;28;20040;-71
2022/08/06 00:15:40;;;;;;;9.88;8.35;;;;;;;23.87;49.80;99072.34;5034898;28;20054;-71
2022/08/06 00:18:06;;;;;;;15.50;9.55;;;;;;;24.03;49.32;99074.53;5034285;28;20021;-71
2022/08/06 00:20:32;;;;;;;19.52;9.20;;;;;;;24.16;49.04;99080.44;5033335;28;20057;-71
2022/08/06 00:22:58;;;;;;;12.82;8.63;;;;;;;24.23;48.73;99071.69;5033713;28;20066;-71
2022/08/06 00:25:24;;;;;;;10.40;7.15;;;;;;;24.27;48.53;99073.69;5034984;28;20029;-71
2022/08/06 00:27:50;;;;;;;12.82;8.48;;;;;;;24.45;48.06;99074.13;5032778;28;20538;-71
2022/08/06 00:30:15;;;;;;;13.85;9.50;;;;;;;24.47;48.30;99074.47;5034773;28;20033;-71
2022/08/06 00:32:40;;;;;;;18.27;8.50;;;;;;;24.49;48.33;99065.47;5034836;28;20112;-71
2022/08/06 00:35:06;;;;;;;16.25;8.63;;;;;;;24.44;48.69;99074.59;5034786;28;20022;-71
2022/08/06 00:37:32;;;;;;;12.88;8.48;;;;;;;24.41;48.46;99073.41;5032404;28;20136;-71
2022/08/06 00:39:59;;;;;;;14.38;8.85;;;;;;;24.31;48.83;99074.44;5033375;28;20033;-71
2022/08/06 00:42:25;;;;;;;15.00;9.10;;;;;;;24.35;48.79;99072.28;5033764;28;20033;-71
2022/08/06 00:44:51;;;;;;;14.75;7.93;;;;;;;24.25;48.94;99065.56;5033351;28;20108;-71
2022/08/06 00:47:16;;;;;;;18.40;8.95;;;;;;;24.05;49.67;99069.19;5033517;28;20473;-71
2022/08/06 00:49:42;;;;;;;13.25;8.13;;;;;;;24.10;49.41;99076.47;5034591;28;20030;-71
2022/08/06 00:52:07;;;;;;;15.63;10.85;;;;;;;24.08;49.34;99074.06;5033049;28;20060;-72
2022/08/06 00:54:33;;;;;;;20.20;9.40;;;;;;;24.00;49.51;99068.88;5034432;28;20029;-71
2022/08/06 00:56:58;;;;;;;14.82;9.13;;;;;;;23.83;49.55;99069.59;5033333;28;20053;-71
2022/08/06 00:59:24;;;;;;;15.43;8.30;;;;;;;23.13;51.04;99077.63;5033017;28;20387;-71
2022/08/06 01:01:49;;;;;;;15.90;9.63;;;;;;;22.72;52.22;99081.50;5032754;28;20036;-71
2022/08/06 01:04:15;;;;;;;30.73;8.85;;;;;;;22.90;51.92;99075.56;5034218;28;20052;-71
2022/08/06 01:06:40;;;;;;;13.02;8.27;;;;;;;23.06;51.23;99072.06;5031874;28;20103;-71
2022/08/06 01:09:07;;;;;;;12.80;8.23;;;;;;;23.01;51.39;99069.69;5032526;28;20036;-71
2022/08/06 01:11:32;;;;;;;10.88;8.52;;;;;;;22.69;52.22;99068.13;5032642;28;20116;-71
2022/08/06 01:13:58;;;;;;;8.75;7.95;;;;;;;22.81;51.92;99066.72;5032446;28;20053;-71
2022/08/06 01:16:42;;;;;;;10.23;8.38;;;;;;;23.32;50.82;99072.50;5033637;28;20492;-71
2022/08/06 01:19:38;;;;;;;9.25;8.13;;;;;;;23.47;50.78;99067.38;5012819;28;20788;-71
2022/08/06 01:22:10;;;;;;;15.15;8.25;;;;;;;23.37;50.64;99069.16;5013537;28;20022;-71
2022/08/06 01:24:41;;;;;;;16.08;8.10;;;;;;;22.94;51.87;99072.66;5013933;28;20078;-71
2022/08/06 01:27:16;;;;;;;13.45;8.60;;;;;;;22.74;53.01;99073.31;5018868;28;20436;-71
2022/08/06 01:29:48;;;;;;;14.45;8.55;;;;;;;22.73;52.87;99077.41;5033631;28;20029;-71
2022/08/06 01:32:43;;;;;;;17.13;9.40;;;;;;;22.59;53.46;99067.00;5033520;28;20400;-71
2022/08/06 01:35:16;;;;;;;13.70;8.38;;;;;;;22.10;54.63;99070.81;5029883;28;20037;-71
2022/08/06 01:37:52;;;;;;;15.75;8.85;;;;;;;22.07;54.54;99070.84;5032732;28;20108;-71
2022/08/06 01:40:25;;;;;;;15.20;10.05;;;;;;;21.95;54.54;99077.91;5031366;28;20033;-71
2022/08/06 01:42:56;;;;;;;12.02;9.45;;;;;;;21.86;54.92;99073.50;5033564;28;20499;-71
2022/08/06 01:45:25;;;;;;;14.32;8.95;;;;;;;21.81;55.15;99081.69;5033138;28;20040;-71
2022/08/06 01:47:56;;;;;;;13.60;9.23;;;;;;;21.80;54.72;99074.38;5032634;28;20447;-71
2022/08/06 01:50:29;;;;;;;12.13;9.30;;;;;;;21.79;54.98;99073.59;5031877;28;20091;-71
2022/08/06 01:52:57;;;;;;;14.18;9.25;;;;;;;21.57;55.55;99072.94;5033186;28;20060;-71
2022/08/06 01:55:27;;;;;;;14.57;8.95;;;;;;;21.32;56.30;99076.81;5031850;28;20389;-71
2022/08/06 01:57:57;;;;;;;13.23;8.55;;;;;;;21.53;55.74;99081.50;5032255;28;20029;-71
2022/08/06 02:00:23;;;;;;;;;;;;;;;21.24;56.48;99086.63;5031398;28;20068;-71
2022/08/06 02:02:50;;;;;;;14.60;9.07;;;;;;;21.23;56.32;99073.63;5013039;28;19909;-71
2022/08/06 02:05:19;;;;;;;12.48;8.70;;;;;;;21.36;55.94;99076.78;5011874;28;20102;-71
2022/08/06 02:07:49;;;;;;;11.32;8.63;;;;;;;20.95;57.31;99073.44;5022762;28;20037;-71
2022/08/06 02:10:18;;;;;;;11.25;9.27;;;;;;;20.77;57.78;99073.50;5032822;28;20036;-71
2022/08/06 02:12:45;;;;;;;13.18;9.05;;;;;;;20.60;58.33;99070.31;5032236;28;20033;-71
2022/08/06 02:15:24;;;;;;;14.43;9.88;;;;;;;20.30;59.37;99066.00;5031364;28;20393;-71
2022/08/06 02:17:52;;;;;;;37.25;10.38;;;;;;;20.38;59.55;99071.63;5030737;28;20076;-71
2022/08/06 02:20:22;;;;;;;16.02;9.80;;;;;;;20.45;59.45;99066.75;5031546;28;20499;-71
2022/08/06 02:22:51;;;;;;;12.45;9.40;;;;;;;20.34;59.70;99058.28;5031244;28;20042;-71
2022/08/06 02:25:18;;;;;;;19.70;9.65;;;;;;;20.32;59.85;99060.72;5032776;28;20175;-71
2022/08/06 02:27:50;;;;;;;17.00;9.90;;;;;;;20.30;60.29;99063.16;5030604;28;20061;-71
2022/08/06 02:30:16;;;;;;;11.93;8.45;;;;;;;20.39;60.03;99059.06;5032537;28;20033;-71
2022/08/06 02:32:42;;;;;;;14.05;9.45;;;;;;;20.42;59.88;99046.88;5031540;28;20060;-71
2022/08/06 02:35:09;;;;;;;10.60;8.93;;;;;;;20.52;59.66;99056.56;5032607;28;20043;-71
2022/08/06 02:37:49;;;;;;;16.70;9.18;;;;;;;20.42;60.04;99055.41;5031588;28;20022;-71
2022/08/06 02:40:24;;;;;;;14.25;8.80;;;;;;;20.54;59.76;99051.28;5030254;28;20098;-71
2022/08/06 02:43:00;;;;;;;12.30;8.77;;;;;;;20.53;59.83;99056.16;5029479;28;20537;-71
2022/08/06 02:45:45;;;;;;;13.30;8.75;;;;;;;20.32;59.98;99049.34;5031294;28;20029;-71
2022/08/06 02:48:19;;;;;;;16.95;8.70;;;;;;;20.45;59.90;99054.59;5031092;28;20430;-71
2022/08/06 02:50:48;;;;;;;13.93;9.80;;;;;;;20.51;59.62;99052.91;5032358;28;20045;-71
2022/08/06 02:53:18;;;;;;;18.38;9.80;;;;;;;20.44;59.94;99050.13;5032213;28;20544;-71
2022/08/06 02:55:47;;;;;;;16.88;9.10;;;;;;;20.33;60.27;99050.97;5030998;28;20021;-71
2022/08/06 02:58:23;;;;;;;14.45;9.18;;;;;;;20.13;60.71;99052.66;5019908;28;20476;-71
2022/08/06 03:00:51;;;;;;;10.50;8.60;;;;;;;20.18;60.21;99050.22;5033533;28;20025;-71
2022/08/06 03:03:20;;;;;;;14.52;8.35;;;;;;;20.17;60.37;99059.16;5031662;28;20551;-71
2022/08/06 03:05:49;;;;;;;38.22;10.30;;;;;;;20.14;60.77;99060.78;5028216;28;20018;-71
2022/08/06 03:08:18;;;;;;;17.30;9.52;;;;;;;20.10;60.60;99064.84;5024734;28;20025;-71
2022/08/06 03:10:46;;;;;;;12.13;8.93;;;;;;;20.14;60.48;99059.97;5032022;28;20033;-71
2022/08/06 03:13:12;;;;;;;12.93;9.88;;;;;;;20.26;59.66;99062.34;5012220;28;20092;-71
2022/08/06 03:15:39;;;;;;;10.93;8.65;;;;;;;20.06;60.65;99068.53;5042895;28;20076;-71
2022/08/06 03:18:06;;;;;;;14.73;8.90;;;;;;;19.96;60.88;99060.00;5027814;28;20049;-71
2022/08/06 03:20:33;;;;;;;10.43;9.20;;;;;;;20.00;60.67;99067.31;5028186;28;20037;-71
2022/08/06 03:23:01;;;;;;;13.90;9.23;;;;;;;19.91;61.38;99064.06;5017404;28;20087;-74
2022/08/06 03:25:29;;;;;;;15.95;9.77;;;;;;;20.01;61.11;99057.56;5011958;28;20017;-74
2022/08/06 03:27:56;;;;;;;9.23;8.10;;;;;;;20.09;60.77;99063.22;5015055;28;20129;-72
2022/08/06 03:30:23;;;;;;;10.18;8.98;;;;;;;20.06;60.88;99068.53;5014499;28;20056;-71
2022/08/06 03:32:49;;;;;;;16.77;8.52;;;;;;;20.14;60.69;99065.63;5030345;28;20033;-73
2022/08/06 03:35:16;;;;;;;15.27;9.32;;;;;;;20.11;60.87;99066.47;5014190;28;20025;-73
2022/08/06 03:37:42;;;;;;;10.02;8.27;;;;;;;20.13;60.71;99066.84;5019728;28;20602;-72
2022/08/06 03:40:10;;;;;;;15.45;8.75;;;;;;;20.09;60.95;99075.41;5031098;28;20032;-71
2022/08/06 03:42:36;;;;;;;19.08;9.00;;;;;;;20.28;60.49;99076.97;5031236;28;20531;-72
2022/08/06 03:45:02;;;;;;;18.15;9.10;;;;;;;20.35;60.32;99076.13;5033008;28;20025;-72
2022/08/06 03:47:32;;;;;;;13.00;9.00;;;;;;;20.26;60.61;99073.72;5024775;28;20033;-71
2022/08/06 03:50:20;;;;;;;14.57;8.50;;;;;;;20.25;60.13;99066.41;5036993;28;20029;-71
2022/08/06 03:52:55;;;;;;;13.68;8.75;;;;;;;20.28;60.37;99076.97;5054792;28;20112;-71
2022/08/06 03:55:25;;;;;;;37.42;10.07;;;;;;;20.10;61.17;99071.34;5052327;28;20017;-70
2022/08/06 03:57:53;;;;;;;14.07;8.32;;;;;;;19.84;61.56;99069.75;5033445;28;20029;-73
2022/08/06 04:00:23;;;;;;;20.42;9.38;;;;;;;20.13;61.05;99069.69;5034901;28;20029;-71
2022/08/06 04:02:52;;;;;;;16.10;8.85;;;;;;;20.03;61.49;99082.72;5038704;28;20018;-70
2022/08/06 04:05:20;;;;;;;11.45;8.50;;;;;;;20.05;61.35;99083.94;5017144;28;20029;-70
2022/08/06 04:07:48;;;;;;;18.10;9.00;;;;;;;20.02;61.31;99081.88;5023506;28;20033;-70
2022/08/06 04:10:15;;;;;;;14.90;8.18;;;;;;;20.22;60.98;99086.31;5033193;28;20051;-71
2022/08/06 04:12:45;;;;;;;15.23;8.20;;;;;;;20.22;61.10;99087.13;5033401;28;20407;-71
2022/08/06 04:15:14;;;;;;;14.75;9.75;;;;;;;20.41;60.58;99087.88;5033429;28;20449;-71
2022/08/06 04:17:44;;;;;;;13.53;7.67;;;;;;;20.52;60.42;99084.97;5033673;28;20565;-71
2022/08/06 04:20:16;;;;;;;11.53;8.50;;;;;;;20.76;60.04;99089.72;5031959;28;20459;-72
2022/08/06 04:22:41;;;;;;;10.90;8.75;;;;;;;20.84;59.50;99082.00;5034479;28;20029;-71
2022/08/06 04:25:10;;;;;;;11.13;8.18;;;;;;;21.09;58.88;99083.88;5032223;28;20040;-71
2022/08/06 04:27:37;;;;;;;10.18;7.93;;;;;;;21.25;58.36;99091.09;5033431;28;20034;-71
2022/08/06 04:30:05;;;;;;;16.42;9.02;;;;;;;21.36;58.08;99091.81;5020233;28;20491;-71
2022/08/06 04:32:32;;;;;;;15.02;8.20;;;;;;;21.49;57.54;99091.31;5034346;28;20025;-71
2022/08/06 04:35:01;;;;;;;18.05;8.50;;;;;;;21.52;57.30;99088.41;5033411;28;20033;-72
2022/08/06 04:37:27;;;;;;;12.52;8.07;;;;;;;21.39;57.89;99084.47;5037127;28;20060;-72
2022/08/06 04:39:52;;;;;;;15.88;8.02;;;;;;;21.45;58.11;99082.81;5034140;28;20135;-71
2022/08/06 04:42:18;;;;;;;16.73;8.95;;;;;;;21.65;57.31;99085.88;5032869;28;20029;-72
2022/08/06 04:44:44;;;;;;;14.18;9.65;;;;;;;21.71;57.77;99083.41;5033036;28;20112;-71
2022/08/06 04:47:10;;;;;;;16.15;8.27;;;;;;;21.71;57.43;99072.84;5033166;28;20401;-72
2022/08/06 04:49:36;;;;;;;11.45;8.07;;;;;;;21.92;56.85;99076.69;5023652;28;20469;-71
2022/08/06 04:52:02;;;;;;;15.18;8.25;;;;;;;22.06;56.22;99080.63;5030924;28;20041;-71
2022/08/06 04:54:27;;;;;;;9.20;8.30;;;;;;;22.03;56.06;99093.69;5034032;28;20041;-72
2022/08/06 04:56:53;;;;;;;14.05;8.55;;;;;;;22.16;55.70;99089.06;5046170;28;20388;-71
2022/08/06 04:59:18;;;;;;;16.35;9.95;;;;;;;22.26;55.75;99084.47;5021732;28;20493;-72
2022/08/06 05:01:44;;;;;;;17.45;10.18;;;;;;;22.45;55.77;99096.47;5030204;28;20040;-71
2022/08/06 05:04:09;;;;;;;51.55;10.52;;;;;;;22.70;55.17;99096.16;5033020;28;20017;-72
2022/08/06 05:07:01;;;;;;;18.95;8.60;;;;;;;22.69;54.81;99094.56;5019824;28;20137;-71
2022/08/06 05:09:28;;;;;;;13.50;8.50;;;;;;;22.90;54.38;99098.34;5031416;28;20052;-71
2022/08/06 05:12:00;;;;;;;16.98;8.25;;;;;;;23.07;54.19;99082.22;5025945;28;20053;-72
2022/08/06 05:14:35;;;;;;;13.32;9.63;;;;;;;23.32;53.33;99086.75;5031911;28;20072;-71
2022/08/06 05:17:03;;;;;;;13.60;9.00;;;;;;;23.54;52.04;99097.84;5033370;28;20070;-71
2022/08/06 05:19:35;;;;;;;14.93;9.70;;;;;;;23.50;52.34;99088.50;5014847;28;20040;-72
2022/08/06 05:22:02;;;;;;;17.63;8.27;;;;;;;23.35;51.60;99091.59;5033181;28;20025;-71
2022/08/06 05:24:28;;;;;;;20.98;10.68;;;;;;;23.39;52.18;99098.03;5032292;28;20025;-71
2022/08/06 05:26:55;;;;;;;19.77;10.77;;;;;;;23.61;51.48;99089.13;5023685;28;20108;-70
2022/08/06 05:29:21;;;;;;;19.85;7.78;;;;;;;23.71;50.27;99093.03;5013294;28;20101;-70
2022/08/06 05:31:47;;;;;;;15.52;8.20;;;;;;;23.79;49.89;99088.81;5013294;28;20018;-70
2022/08/06 05:34:13;;;;;;;23.20;9.30;;;;;;;23.90;48.88;99082.94;5013451;28;20053;-70
2022/08/06 05:36:39;;;;;;;27.52;10.30;;;;;;;23.93;49.04;99090.63;5026121;28;20060;-70
2022/08/06 05:39:06;;;;;;;16.67;11.63;;;;;;;24.03;49.00;99093.72;5032328;28;20100;-68
2022/08/06 05:41:34;;;;;;;19.50;10.60;;;;;;;24.15;48.60;99104.53;5032275;28;20021;-69
2022/08/06 05:44:00;;;;;;;13.20;8.90;;;;;;;24.28;48.35;99098.16;5031606;28;20491;-69
2022/08/06 05:46:31;;;;;;;16.50;8.57;;;;;;;24.38;48.90;99089.38;5031166;28;20391;-71
2022/08/06 05:49:06;;;;;;;12.65;11.25;;;;;;;24.37;48.16;99095.50;5032475;28;20083;-70
2022/08/06 05:51:57;;;;;;;27.15;18.10;;;;;;;24.38;47.66;99094.28;5026346;28;20048;-69
2022/08/06 05:54:46;;;;;;;14.50;9.02;;;;;;;24.25;47.51;99091.28;5021422;28;20037;-72
2022/08/06 05:57:16;;;;;;;17.92;10.73;;;;;;;24.14;48.17;99097.22;5027560;28;20072;-72
2022/08/06 05:59:45;;;;;;;;;;;;;;;24.31;48.22;99091.56;5026643;28;20025;-72
2022/08/06 06:02:12;;;;;;;18.85;8.00;;;;;;;24.18;48.13;99097.94;5036816;28;20110;-72
2022/08/06 06:04:40;;;;;;;16.27;8.50;;;;;;;24.14;48.55;99085.78;5019730;28;20040;-71
2022/08/06 06:07:06;;;;;;;14.60;8.35;;;;;;;24.18;49.02;99083.66;5037001;28;20017;-70
2022/08/06 06:09:32;;;;;;;12.02;8.77;;;;;;;24.22;48.44;99078.66;5024472;28;20101;-71
2022/08/06 06:11:59;;;;;;;17.88;11.05;;;;;;;24.40;48.52;99084.00;5017145;28;20030;-72
2022/08/06 06:14:24;;;;;;;21.90;13.10;;;;;;;24.64;46.91;99083.13;5025602;28;20417;-73
2022/08/06 06:16:57;;;;;;;20.55;12.43;;;;;;;24.87;47.68;99085.09;5035329;28;20021;-71
2022/08/06 06:19:46;;;;;;;16.52;12.88;;;;;;;25.27;46.81;99077.66;5050553;28;20024;-72
2022/08/06 06:22:21;;;;;;;15.98;7.70;;;;;;;25.56;46.22;99089.22;5041886;28;20480;-70
2022/08/06 06:25:11;;;;;;;13.68;7.80;;;;;;;25.81;44.43;99084.13;5025592;28;20026;-70
2022/08/06 06:28:05;;;;;;;8.25;6.57;;;;;;;25.98;43.70;99079.97;5031152;28;20025;-70
2022/08/06 06:30:43;;;;;;;13.38;9.15;;;;;;;26.23;43.95;99084.22;5031560;28;20087;-70
2022/08/06 06:33:47;;;;;;;14.15;7.28;;;;;;;26.33;43.06;99076.59;5030623;28;20117;-70
2022/08/06 06:36:39;;;;;;;9.10;7.78;;;;;;;26.46;43.26;99073.75;5012080;28;20038;-70
2022/08/06 06:39:17;;;;;;;11.60;9.77;;;;;;;25.92;43.76;99065.38;5011688;28;20022;-70
2022/08/06 06:41:53;;;;;;;13.90;8.52;;;;;;;26.23;43.18;99071.97;5011639;28;20111;-70
2022/08/06 06:44:21;;;;;;;15.13;8.00;;;;;;;26.69;43.58;99066.13;5017832;28;20037;-70
2022/08/06 06:47:34;;;;;;;12.05;7.25;;;;;;;26.69;42.35;99066.13;5031238;28;20061;-70
2022/08/06 06:50:07;;;;;;;10.05;6.30;;;;;;;26.58;42.69;99050.03;4970929;28;20051;-70
2022/08/06 06:52:38;;;;;;;11.10;8.57;;;;;;;26.83;42.45;99057.06;5031442;28;20037;-70
2022/08/06 06:55:35;;;;;;;14.90;7.90;;;;;;;26.48;43.10;99051.16;5029432;28;20035;-70
2022/08/06 06:58:41;;;;;;;13.48;7.75;;;;;;;26.78;43.01;99054.78;5030128;28;20029;-70
2022/08/06 07:01:10;;;;;;;11.00;7.90;;;;;;;27.10;43.23;99061.59;5029714;28;20044;-70
2022/08/06 07:03:39;;;;;;;11.50;7.43;;;;;;;27.20;43.50;99053.91;5029357;28;20033;-70
2022/08/06 07:06:08;;;;;;;12.63;7.70;;;;;;;27.13;43.36;99045.50;5031072;28;20483;-70
2022/08/06 07:08:41;;;;;;;7.85;7.03;;;;;;;27.24;43.23;99039.44;5031364;28;20033;-70
2022/08/06 07:11:07;;;;;;;12.32;7.68;;;;;;;27.39;42.98;99048.34;5029925;28;20029;-70
2022/08/06 07:13:36;;;;;;;16.75;8.00;;;;;;;27.59;42.98;99037.44;5031251;28;20033;-70
2022/08/06 07:16:04;;;;;;;9.18;7.65;;;;;;;27.73;42.46;99038.19;5044460;28;20121;-70
2022/08/06 07:18:30;;;;;;;9.35;7.47;;;;;;;27.69;42.22;99040.41;5029143;28;20029;-70
2022/08/06 07:20:57;;;;;;;16.38;8.27;;;;;;;27.70;41.83;99044.88;5031335;28;20393;-70
2022/08/06 07:23:23;;;;;;;8.25;7.55;;;;;;;27.90;42.65;99035.97;5031125;28;20029;-70
2022/08/06 07:25:50;;;;;;;10.35;8.70;;;;;;;28.22;41.35;99039.78;5029210;28;20128;-70
2022/08/06 07:28:17;;;;;;;12.70;7.65;;;;;;;28.34;40.89;99046.72;5030189;28;20034;-70
2022/08/06 07:30:44;;;;;;;8.93;7.80;;;;;;;28.69;40.43;99037.97;5031142;28;20040;-70
2022/08/06 07:33:12;;;;;;;14.35;7.65;;;;;;;28.73;40.68;99034.97;5030946;28;20033;-71
2022/08/06 07:35:41;;;;;;;8.68;7.38;;;;;;;28.89;40.38;99025.34;5030230;28;20062;-70
2022/08/06 07:38:09;;;;;;;9.52;7.80;;;;;;;29.05;39.72;99030.03;5009980;28;20112;-70
2022/08/06 07:40:47;;;;;;;9.82;8.77;;;;;;;29.17;39.22;99028.31;5011422;28;20034;-70
2022/08/06 07:43:28;;;;;;;11.77;7.68;;;;;;;29.31;39.34;99032.69;5011244;28;20037;-70
2022/08/06 07:45:58;;;;;;;9.77;7.28;;;;;;;29.59;39.43;99029.09;5013892;28;20059;-70
2022/08/06 07:48:28;;;;;;;28.85;8.43;;;;;;;29.80;38.71;99028.13;5029488;28;20069;-70
2022/08/06 07:50:53;;;;;;;;;;;;;;;29.91;38.43;99023.97;5031526;28;20037;-70
2022/08/06 07:53:20;;;;;;;16.27;7.30;;;;;;;29.87;38.44;99020.47;5030862;28;19936;-70
2022/08/06 07:55:47;;;;;;;11.23;7.63;;;;;;;29.84;38.10;99017.28;5030169;28;20459;-70
2022/08/06 07:58:14;;;;;;;10.23;7.25;;;;;;;29.86;38.20;99019.66;5030695;28;20021;-70
2022/08/06 08:00:40;;;;;;;9.95;7.13;;;;;;;30.05;37.20;99019.69;5030956;28;20029;-70
2022/08/06 08:08:36;;;;;;;8.32;7.60;;;;;;;30.61;37.60;99017.50;5030743;28;20091;-70
2022/08/06 08:11:02;;;;;;;8.68;7.07;;;;;;;30.87;36.11;99002.69;5030888;28;20470;-70
2022/08/06 08:13:30;;;;;;;11.15;7.05;;;;;;;30.88;35.80;99018.72;5029600;28;20065;-70
2022/08/06 08:15:57;;;;;;;15.43;7.32;;;;;;;30.18;36.29;99005.91;5029050;28;20482;-70
2022/08/06 08:18:31;;;;;;;8.57;7.20;;;;;;;30.49;37.05;99018.50;5027686;28;20503;-70
2022/08/06 08:20:59;;;;;;;8.55;7.25;;;;;;;30.51;36.25;99015.94;5029614;28;20033;-70
2022/08/06 08:23:27;;;;;;;10.32;6.85;;;;;;;30.58;35.71;99017.69;5030124;28;20038;-70
2022/08/06 08:25:56;;;;;;;10.70;6.90;;;;;;;30.67;35.46;99012.72;5028377;28;20072;-70
2022/08/06 08:28:21;;;;;;;16.08;6.78;;;;;;;30.95;35.38;99014.69;5020356;28;20491;-70
2022/08/06 08:30:47;;;;;;;8.48;6.00;;;;;;;31.01;34.66;99011.94;5023471;28;20025;-70
2022/08/06 08:33:13;;;;;;;9.50;6.68;;;;;;;31.31;34.67;99003.47;5020065;28;20018;-72
2022/08/06 08:35:38;;;;;;;11.20;6.72;;;;;;;31.30;34.84;99010.53;5014182;28;20038;-71
2022/08/06 08:38:04;;;;;;;12.38;6.40;;;;;;;31.47;34.55;99003.03;5032198;28;20065;-70
2022/08/06 08:40:31;;;;;;;17.17;7.28;;;;;;;31.68;34.77;99009.00;5025285;28;20120;-70
2022/08/06 08:43:01;;;;;;;8.13;7.05;;;;;;;31.85;33.91;99002.78;5026392;28;20388;-70
2022/08/06 08:45:27;;;;;;;9.77;6.25;;;;;;;31.93;34.53;98995.34;5020613;28;20037;-70
2022/08/06 08:47:53;;;;;;;17.48;6.40;;;;;;;32.13;34.32;98991.78;5030491;28;20443;-70
2022/08/06 08:50:22;;;;;;;11.48;6.57;;;;;;;32.32;33.01;98989.50;5031447;28;20039;-70
2022/08/06 08:52:55;;;;;;;11.95;6.35;;;;;;;32.41;33.01;98988.66;5027625;28;20087;-70
2022/08/06 08:55:25;;;;;;;8.85;5.20;;;;;;;31.60;32.08;98982.56;5031131;28;20397;-70
2022/08/06 08:57:52;;;;;;;6.63;5.03;;;;;;;31.40;32.47;98994.75;5026785;28;20476;-70
2022/08/06 09:00:19;;;;;;;5.30;4.32;;;;;;;31.92;31.70;98985.06;5043465;28;20037;-70
2022/08/06 09:02:45;;;;;;;9.55;5.97;;;;;;;31.63;31.58;98980.81;5029533;28;20033;-71
2022/08/06 09:05:10;;;;;;;7.80;5.05;;;;;;;31.66;31.83;98980.59;5010914;28;20440;-70
2022/08/06 09:07:37;;;;;;;9.73;5.55;;;;;;;32.27;31.86;98975.75;5024475;28;20037;-70
2022/08/06 09:10:08;;;;;;;5.80;4.40;;;;;;;32.68;29.59;98978.06;5030664;28;20033;-70
2022/08/06 09:12:33;;;;;;;12.45;4.00;;;;;;;32.89;29.03;98969.44;5030634;28;20405;-70
2022/08/06 09:14:59;;;;;;;7.10;5.05;;;;;;;32.99;29.47;98970.91;5030628;28;20068;-71
2022/08/06 09:17:25;;;;;;;4.50;3.75;;;;;;;33.12;28.42;98967.69;5029775;28;20033;-71
2022/08/06 09:19:52;;;;;;;6.72;4.05;;;;;;;33.26;28.39;98971.03;5030717;28;20033;-70
2022/08/06 09:22:17;;;;;;;5.72;4.10;;;;;;;33.19;27.63;98967.28;5025703;28;20044;-70
2022/08/06 09:24:43;;;;;;;4.70;3.28;;;;;;;33.37;27.92;98964.63;5010798;28;20029;-70
2022/08/06 09:27:09;;;;;;;6.97;4.07;;;;;;;32.89;28.01;98966.53;5020620;28;20508;-71
2022/08/06 09:29:36;;;;;;;5.47;4.60;;;;;;;33.29;27.61;98967.94;5019537;28;20036;-72
2022/08/06 09:32:06;;;;;;;7.07;4.20;;;;;;;33.51;28.00;98965.88;5030463;28;20029;-72
2022/08/06 09:34:37;;;;;;;4.90;4.15;;;;;;;33.70;27.62;98963.47;5029284;28;20029;-72
2022/08/06 09:37:03;;;;;;;5.05;3.80;;;;;;;33.62;27.66;98954.41;5029121;28;20090;-72
2022/08/06 09:39:40;;;;;;;9.82;4.10;;;;;;;33.64;28.45;98962.63;5024980;28;20041;-70
2022/08/06 09:42:07;;;;;;;6.07;4.35;;;;;;;33.43;28.52;98954.69;5029036;28;20087;-70
2022/08/06 09:44:33;;;;;;;7.65;4.40;;;;;;;33.55;28.59;98951.97;5029982;28;20033;-71
2022/08/06 09:47:00;;;;;;;12.65;4.75;;;;;;;33.51;27.97;98951.38;5046356;28;20037;-69
2022/08/06 09:49:26;;;;;;;5.05;4.22;;;;;;;33.45;27.33;98951.31;5028449;28;20033;-69
2022/08/06 09:52:11;;;;;;;5.88;4.60;;;;;;;33.62;27.77;98953.63;5014085;28;20619;-69
2022/08/06 09:54:37;;;;;;;4.43;3.95;;;;;;;33.65;27.94;98956.28;5009645;28;20033;-69
2022/08/06 09:57:03;;;;;;;7.95;4.22;;;;;;;33.74;27.61;98955.34;5011221;28;20077;-69
2022/08/06 09:59:28;;;;;;;7.28;3.92;;;;;;;33.33;28.44;98947.44;5026940;28;20075;-69
2022/08/06 10:01:54;;;;;;;5.03;3.95;;;;;;;32.93;28.97;98946.06;5021848;28;20041;-69
2022/08/06 10:04:27;;;;;;;9.68;4.78;;;;;;;32.78;29.14;98941.09;5022607;28;20033;-70
2022/08/06 10:06:57;;;;;;;8.10;4.65;;;;;;;33.11;28.88;98930.53;5013769;28;20080;-72
2022/08/06 10:09:24;;;;;;;9.48;4.85;;;;;;;33.59;29.25;98941.72;5026924;28;20033;-68
2022/08/06 10:11:49;;;;;;;7.07;4.35;;;;;;;33.12;28.58;98932.94;5014341;28;20077;-68
2022/08/06 10:14:23;;;;;;;19.13;5.00;;;;;;;33.19;29.55;98937.50;5029546;28;20085;-68
2022/08/06 10:17:10;;;;;;;11.57;4.20;;;;;;;33.35;28.59;98939.03;5026643;28;20144;-69
2022/08/06 10:19:38;;;;;;;9.45;4.53;;;;;;;33.74;28.27;98932.94;5018200;28;20025;-69
2022/08/06 10:22:08;;;;;;;10.55;4.72;;;;;;;34.02;28.07;98929.56;5008716;28;20037;-68
2022/08/06 10:24:39;;;;;;;7.50;4.43;;;;;;;34.35;27.93;98923.81;5027464;28;20404;-68
2022/08/06 10:27:07;;;;;;;4.75;4.25;;;;;;;34.32;27.56;98921.94;5026667;28;20029;-69
2022/08/06 10:29:35;;;;;;;8.25;4.90;;;;;;;34.06;27.21;98916.97;5017811;28;20078;-69
2022/08/06 10:32:02;;;;;;;11.35;4.78;;;;;;;34.41;27.23;98919.66;5017174;28;20453;-68
2022/08/06 10:34:29;;;;;;;5.70;5.05;;;;;;;34.66;26.62;98919.34;5009405;28;20033;-68
2022/08/06 10:36:58;;;;;;;7.35;4.25;;;;;;;34.37;27.47;98915.38;5013188;28;20037;-68
2022/08/06 10:39:28;;;;;;;5.20;4.78;;;;;;;34.43;27.68;98916.25;5023544;28;20044;-68
2022/08/06 10:41:55;;;;;;;8.50;5.10;;;;;;;34.17;26.70;98908.38;5027673;28;20038;-69
2022/08/06 10:44:22;;;;;;;4.85;4.43;;;;;;;34.36;27.92;98903.00;5011460;28;20080;-68
2022/08/06 10:46:51;;;;;;;4.72;4.18;;;;;;;35.04;26.98;98904.81;5011957;28;20099;-69
2022/08/06 10:49:19;;;;;;;9.65;4.72;;;;;;;34.97;25.70;98906.06;5028206;28;20037;-69
2022/08/06 10:51:47;;;;;;;4.80;4.40;;;;;;;34.84;27.30;98895.69;5029299;28;20404;-69
2022/08/06 10:54:13;;;;;;;5.55;4.78;;;;;;;34.73;26.78;98892.72;5026538;28;20036;-69
2022/08/06 10:56:38;;;;;;;5.32;4.70;;;;;;;34.99;27.20;98898.44;5024136;28;20041;-69
2022/08/06 10:59:06;;;;;;;6.35;4.60;;;;;;;35.30;25.32;98910.50;5026709;28;20029;-69
2022/08/06 11:02:01;;;;;;;6.70;5.68;;;;;;;35.48;25.41;98903.44;5029135;28;20488;-69
2022/08/06 11:04:46;;;;;;;4.97;4.47;;;;;;;34.94;25.96;98893.41;5028679;28;20091;-70
2022/08/06 11:07:12;;;;;;;8.25;4.55;;;;;;;35.37;25.86;98892.56;5027841;28;20408;-69
2022/08/06 11:10:02;;;;;;;6.95;5.10;;;;;;;35.74;25.66;98892.97;5026215;28;20033;-69
2022/08/06 11:12:52;;;;;;;4.85;4.45;;;;;;;35.81;24.40;98884.53;5023268;28;20041;-69
2022/08/06 11:15:20;;;;;;;5.00;4.60;;;;;;;35.62;25.07;98890.03;5008397;28;20061;-69
2022/08/06 11:17:48;;;;;;;5.40;4.90;;;;;;;35.83;24.85;98878.16;5014650;28;20489;-69
2022/08/06 11:20:31;;;;;;;6.18;4.70;;;;;;;35.89;25.10;98881.09;5015233;28;20044;-70
2022/08/06 11:23:00;;;;;;;5.00;4.60;;;;;;;35.32;24.40;98875.91;5008966;28;20033;-68
2022/08/06 11:25:47;;;;;;;6.70;5.20;;;;;;;35.83;24.85;98884.00;5008790;28;20037;-68
2022/08/06 11:28:14;;;;;;;10.45;5.03;;;;;;;36.03;24.57;98885.88;5015890;28;20091;-68
2022/08/06 11:30:42;;;;;;;16.90;6.07;;;;;;;36.08;25.13;98876.38;5026538;28;20030;-70
2022/08/06 11:33:09;;;;;;;5.47;4.75;;;;;;;35.80;25.14;98873.41;5026721;28;20037;-69
2022/08/06 11:35:35;;;;;;;7.60;5.07;;;;;;;35.59;25.01;98882.34;5028375;28;20030;-69
2022/08/06 11:38:05;;;;;;;5.72;4.63;;;;;;;35.87;25.14;98872.91;5025278;28;20467;-70
2022/08/06 11:40:58;;;;;;;5.60;4.32;;;;;;;35.94;24.81;98869.47;5027444;28;20112;-69
2022/08/06 11:43:42;;;;;;;6.63;4.28;;;;;;;36.33;24.64;98858.41;4998330;28;20046;-70
2022/08/06 11:46:24;;;;;;;4.38;3.83;;;;;;;36.24;24.16;98860.25;5027694;28;20033;-70